sensor_id;sensor_type;location;lat;lon;timestamp;pressure;altitude;pressure_sealevel;temperature;humidity
3294;BME280;1659;51.470;6.770;2022-08-27T00:01:07;101421.06;;;18.99;71.93
3294;BME280;1659;51.470;6.770;2022-08-27T00:03:34;101423.72;;;18.99;72.19
3294;BME280;1659;51.470;6.770;2022-08-27T00:06:00;101421.97;;;18.98;72.00
3294;BME280;1659;51.470;6.770;2022-08-27T00:08:27;101418.44;;;18.98;72.13
3294;BME280;1659;51.470;6.770;2022-08-27T00:10:56;101418.44;;;18.98;72.07
3294;BME280;1659;51.470;6.770;2022-08-27T00:13:23;101415.75;;;18.98;71.97
3294;BME280;1659;51.470;6.770;2022-08-27T00:15:50;101414.88;;;18.97;72.04
3294;BME280;1659;51.470;6.770;2022-08-27T00:18:17;101424.66;;;18.98;72.01
3294;BME280;1659;51.470;6.770;2022-08-27T00:20:43;101422.91;;;18.97;72.00
3294;BME280;1659;51.470;6.770;2022-08-27T00:23:10;101418.38;;;18.99;71.90
3294;BME280;1659;51.470;6.770;2022-08-27T00:25:37;101421.13;;;18.98;71.94
3294;BME280;1659;51.470;6.770;2022-08-27T00:28:06;101412.19;;;18.97;71.98
3294;BME280;1659;51.470;6.770;2022-08-27T00:30:33;101403.22;;;18.98;71.89
3294;BME280;1659;51.470;6.770;2022-08-27T00:32:59;101417.47;;;18.99;71.79
3294;BME280;1659;51.470;6.770;2022-08-27T00:35:28;101417.47;;;18.99;71.68
3294;BME280;1659;51.470;6.770;2022-08-27T00:37:55;101413.94;;;18.98;71.73
3294;BME280;1659;51.470;6.770;2022-08-27T00:40:22;101411.25;;;18.98;71.62
3294;BME280;1659;51.470;6.770;2022-08-27T00:42:48;101411.25;;;18.98;71.70
3294;BME280;1659;51.470;6.770;2022-08-27T00:45:18;101405.91;;;18.98;71.42
3294;BME280;1659;51.470;6.770;2022-08-27T00:47:49;101407.66;;;18.99;71.18
3294;BME280;1659;51.470;6.770;2022-08-27T00:50:23;101413.88;;;19.00;71.24
3294;BME280;1659;51.470;6.770;2022-08-27T00:52:56;101404.03;;;19.00;71.19
3294;BME280;1659;51.470;6.770;2022-08-27T00:55:27;101414.75;;;19.00;71.23
3294;BME280;1659;51.470;6.770;2022-08-27T00:58:01;101414.75;;;19.00;71.07
3294;BME280;1659;51.470;6.770;2022-08-27T01:00:31;101406.69;;;19.00;70.97
3294;BME280;1659;51.470;6.770;2022-08-27T01:02:57;101409.38;;;19.00;70.88
3294;BME280;1659;51.470;6.770;2022-08-27T01:05:25;101415.69;;;18.99;70.81
3294;BME280;1659;51.470;6.770;2022-08-27T01:07:56;101416.69;;;18.97;71.30
3294;BME280;1659;51.470;6.770;2022-08-27T01:10:25;101419.38;;;18.97;70.92
3294;BME280;1659;51.470;6.770;2022-08-27T01:12:54;101409.56;;;18.96;70.91
3294;BME280;1659;51.470;6.770;2022-08-27T01:15:23;101404.31;;;18.94;70.80
3294;BME280;1659;51.470;6.770;2022-08-27T01:17:52;101410.66;;;18.92;70.77
3294;BME280;1659;51.470;6.770;2022-08-27T01:20:21;101409.84;;;18.90;70.86
3294;BME280;1659;51.470;6.770;2022-08-27T01:22:54;101406.31;;;18.89;70.77
3294;BME280;1659;51.470;6.770;2022-08-27T01:25:25;101409.06;;;18.88;70.66
3294;BME280;1659;51.470;6.770;2022-08-27T01:27:55;101406.38;;;18.88;70.59
3294;BME280;1659;51.470;6.770;2022-08-27T01:30:24;101404.56;;;18.88;70.62
3294;BME280;1659;51.470;6.770;2022-08-27T01:32:51;101408.09;;;18.89;70.52
3294;BME280;1659;51.470;6.770;2022-08-27T01:35:19;101403.63;;;18.89;70.47
3294;BME280;1659;51.470;6.770;2022-08-27T01:37:49;101408.94;;;18.91;70.37
3294;BME280;1659;51.470;6.770;2022-08-27T01:40:17;101403.56;;;18.91;70.35
3294;BME280;1659;51.470;6.770;2022-08-27T01:42:47;101403.56;;;18.91;70.59
3294;BME280;1659;51.470;6.770;2022-08-27T01:45:17;101400.91;;;18.91;70.29
3294;BME280;1659;51.470;6.770;2022-08-27T01:47:44;101407.13;;;18.91;70.48
3294;BME280;1659;51.470;6.770;2022-08-27T01:50:13;101404.50;;;18.90;70.39
3294;BME280;1659;51.470;6.770;2022-08-27T01:52:41;101403.69;;;18.88;70.34
3294;BME280;1659;51.470;6.770;2022-08-27T01:55:10;101406.44;;;18.86;70.37
3294;BME280;1659;51.470;6.770;2022-08-27T01:57:38;101401.09;;;18.86;70.47
3294;BME280;1659;51.470;6.770;2022-08-27T02:00:11;101401.94;;;18.86;70.26
3294;BME280;1659;51.470;6.770;2022-08-27T02:02:38;101401.09;;;18.86;70.25
3294;BME280;1659;51.470;6.770;2022-08-27T02:05:05;101404.69;;;18.85;70.46
3294;BME280;1659;51.470;6.770;2022-08-27T02:07:33;101403.81;;;18.84;70.45
3294;BME280;1659;51.470;6.770;2022-08-27T02:09:59;101398.56;;;18.81;70.18
3294;BME280;1659;51.470;6.770;2022-08-27T02:12:26;101402.16;;;18.82;70.35
3294;BME280;1659;51.470;6.770;2022-08-27T02:14:53;101398.56;;;18.81;70.20
3294;BME280;1659;51.470;6.770;2022-08-27T02:17:21;101401.31;;;18.80;70.20
3294;BME280;1659;51.470;6.770;2022-08-27T02:19:47;101397.75;;;18.79;70.31
3294;BME280;1659;51.470;6.770;2022-08-27T02:22:14;101396.91;;;18.79;70.21
3294;BME280;1659;51.470;6.770;2022-08-27T02:24:41;101403.06;;;18.81;70.18
3294;BME280;1659;51.470;6.770;2022-08-27T02:27:08;101400.38;;;18.81;70.05
3294;BME280;1659;51.470;6.770;2022-08-27T02:29:34;101394.13;;;18.82;69.90
3294;BME280;1659;51.470;6.770;2022-08-27T02:32:01;101395.94;;;18.80;69.84
3294;BME280;1659;51.470;6.770;2022-08-27T02:34:29;101392.34;;;18.81;69.81
3294;BME280;1659;51.470;6.770;2022-08-27T02:36:56;101396.91;;;18.79;69.82
3294;BME280;1659;51.470;6.770;2022-08-27T02:39:23;101396.00;;;18.78;69.74
3294;BME280;1659;51.470;6.770;2022-08-27T02:41:50;101403.19;;;18.78;69.58
3294;BME280;1659;51.470;6.770;2022-08-27T02:44:17;101397.94;;;18.75;69.79
3294;BME280;1659;51.470;6.770;2022-08-27T02:46:43;101393.69;;;18.71;69.84
3294;BME280;1659;51.470;6.770;2022-08-27T02:49:10;101384.84;;;18.68;69.77
3294;BME280;1659;51.470;6.770;2022-08-27T02:51:38;101388.66;;;18.63;69.87
3294;BME280;1659;51.470;6.770;2022-08-27T02:54:05;101384.28;;;18.60;69.96
3294;BME280;1659;51.470;6.770;2022-08-27T02:56:32;101387.03;;;18.59;69.91
3294;BME280;1659;51.470;6.770;2022-08-27T02:58:58;101390.59;;;18.59;69.92
3294;BME280;1659;51.470;6.770;2022-08-27T03:01:26;101388.84;;;18.58;69.80
3294;BME280;1659;51.470;6.770;2022-08-27T03:03:53;101383.56;;;18.57;69.74
3294;BME280;1659;51.470;6.770;2022-08-27T03:06:20;101390.72;;;18.56;69.82
3294;BME280;1659;51.470;6.770;2022-08-27T03:08:48;101387.19;;;18.56;69.71
3294;BME280;1659;51.470;6.770;2022-08-27T03:11:14;101394.31;;;18.55;69.68
3294;BME280;1659;51.470;6.770;2022-08-27T03:13:41;101386.28;;;18.55;69.48
3294;BME280;1659;51.470;6.770;2022-08-27T03:16:08;101383.69;;;18.54;69.59
3294;BME280;1659;51.470;6.770;2022-08-27T03:18:34;101391.84;;;18.51;69.87
3294;BME280;1659;51.470;6.770;2022-08-27T03:21:00;101387.50;;;18.48;69.68
3294;BME280;1659;51.470;6.770;2022-08-27T03:23:29;101388.56;;;18.44;69.91
3294;BME280;1659;51.470;6.770;2022-08-27T03:26:00;101387.59;;;18.45;69.82
3294;BME280;1659;51.470;6.770;2022-08-27T03:28:29;101383.94;;;18.47;69.73
3294;BME280;1659;51.470;6.770;2022-08-27T03:30:58;101383.88;;;18.49;69.46
3294;BME280;1659;51.470;6.770;2022-08-27T03:33:26;101381.22;;;18.49;69.48
3294;BME280;1659;51.470;6.770;2022-08-27T03:35:53;101377.59;;;18.50;69.53
3294;BME280;1659;51.470;6.770;2022-08-27T03:38:20;101381.22;;;18.49;69.39
3294;BME280;1659;51.470;6.770;2022-08-27T03:40:47;101389.31;;;18.47;69.48
3294;BME280;1659;51.470;6.770;2022-08-27T03:43:17;101388.44;;;18.47;69.48
3294;BME280;1659;51.470;6.770;2022-08-27T03:45:46;101386.69;;;18.46;69.43
3294;BME280;1659;51.470;6.770;2022-08-27T03:48:13;101388.50;;;18.45;69.33
3294;BME280;1659;51.470;6.770;2022-08-27T03:50:42;101386.63;;;18.47;69.23
3294;BME280;1659;51.470;6.770;2022-08-27T03:53:12;101380.41;;;18.47;69.22
3294;BME280;1659;51.470;6.770;2022-08-27T03:55:38;101383.09;;;18.47;69.22
3294;BME280;1659;51.470;6.770;2022-08-27T03:58:06;101388.44;;;18.47;69.28
3294;BME280;1659;51.470;6.770;2022-08-27T04:00:35;101381.34;;;18.46;68.99
3294;BME280;1659;51.470;6.770;2022-08-27T04:03:02;101383.94;;;18.47;69.01
3294;BME280;1659;51.470;6.770;2022-08-27T04:05:29;101390.28;;;18.45;69.13
3294;BME280;1659;51.470;6.770;2022-08-27T04:07:56;101387.66;;;18.43;68.93
3294;BME280;1659;51.470;6.770;2022-08-27T04:10:22;101398.31;;;18.45;68.94
3294;BME280;1659;51.470;6.770;2022-08-27T04:12:49;101391.19;;;18.45;68.96
3294;BME280;1659;51.470;6.770;2022-08-27T04:15:16;101390.28;;;18.45;68.83
3294;BME280;1659;51.470;6.770;2022-08-27T04:17:44;101397.34;;;18.47;68.69
3294;BME280;1659;51.470;6.770;2022-08-27T04:20:11;101396.38;;;18.48;68.61
3294;BME280;1659;51.470;6.770;2022-08-27T04:22:37;101398.06;;;18.51;68.51
3294;BME280;1659;51.470;6.770;2022-08-27T04:25:05;101397.22;;;18.51;68.36
3294;BME280;1659;51.470;6.770;2022-08-27T04:27:32;101400.75;;;18.51;68.30
3294;BME280;1659;51.470;6.770;2022-08-27T04:30:00;101400.81;;;18.49;68.52
3294;BME280;1659;51.470;6.770;2022-08-27T04:32:28;101398.19;;;18.48;68.31
3294;BME280;1659;51.470;6.770;2022-08-27T04:34:57;101397.38;;;18.46;68.45
3294;BME280;1659;51.470;6.770;2022-08-27T04:37:28;101392.97;;;18.45;68.31
3294;BME280;1659;51.470;6.770;2022-08-27T04:39:55;101404.56;;;18.45;68.23
3294;BME280;1659;51.470;6.770;2022-08-27T04:42:22;101405.47;;;18.44;68.20
3294;BME280;1659;51.470;6.770;2022-08-27T04:44:49;101401.16;;;18.42;68.30
3294;BME280;1659;51.470;6.770;2022-08-27T04:47:17;101410.94;;;18.41;68.05
3294;BME280;1659;51.470;6.770;2022-08-27T04:49:44;101417.31;;;18.39;68.17
3294;BME280;1659;51.470;6.770;2022-08-27T04:52:12;101416.50;;;18.37;68.07
3294;BME280;1659;51.470;6.770;2022-08-27T04:54:40;101420.13;;;18.36;68.13
3294;BME280;1659;51.470;6.770;2022-08-27T04:57:07;101422.91;;;18.33;68.19
3294;BME280;1659;51.470;6.770;2022-08-27T04:59:35;101418.50;;;18.32;68.06
3294;BME280;1659;51.470;6.770;2022-08-27T05:02:05;101422.09;;;18.30;68.07
3294;BME280;1659;51.470;6.770;2022-08-27T05:04:34;101423.97;;;18.28;68.07
3294;BME280;1659;51.470;6.770;2022-08-27T05:07:00;101423.09;;;18.28;68.05
3294;BME280;1659;51.470;6.770;2022-08-27T05:09:28;101419.53;;;18.27;67.89
3294;BME280;1659;51.470;6.770;2022-08-27T05:11:55;101423.16;;;18.26;68.03
3294;BME280;1659;51.470;6.770;2022-08-27T05:14:23;101420.50;;;18.26;68.09
3294;BME280;1659;51.470;6.770;2022-08-27T05:16:54;101429.31;;;18.28;67.91
3294;BME280;1659;51.470;6.770;2022-08-27T05:19:21;101422.16;;;18.29;67.80
3294;BME280;1659;51.470;6.770;2022-08-27T05:21:50;101417.75;;;18.28;67.99
3294;BME280;1659;51.470;6.770;2022-08-27T05:24:17;101421.34;;;18.27;67.96
3294;BME280;1659;51.470;6.770;2022-08-27T05:26:45;101425.78;;;18.28;68.07
3294;BME280;1659;51.470;6.770;2022-08-27T05:29:12;101426.66;;;18.28;67.93
3294;BME280;1659;51.470;6.770;2022-08-27T05:31:40;101427.50;;;18.29;67.77
3294;BME280;1659;51.470;6.770;2022-08-27T05:34:06;101422.03;;;18.32;67.79
3294;BME280;1659;51.470;6.770;2022-08-27T05:36:34;101425.47;;;18.36;67.67
3294;BME280;1659;51.470;6.770;2022-08-27T05:39:03;101421.88;;;18.37;67.68
3294;BME280;1659;51.470;6.770;2022-08-27T05:41:31;101421.88;;;18.37;67.75
3294;BME280;1659;51.470;6.770;2022-08-27T05:44:02;101420.91;;;18.38;67.75
3294;BME280;1659;51.470;6.770;2022-08-27T05:46:29;101421.72;;;18.40;67.64
3294;BME280;1659;51.470;6.770;2022-08-27T05:48:57;101425.97;;;18.45;67.47
3294;BME280;1659;51.470;6.770;2022-08-27T05:51:26;101433.03;;;18.46;67.55
3294;BME280;1659;51.470;6.770;2022-08-27T05:53:54;101430.38;;;18.46;67.43
3294;BME280;1659;51.470;6.770;2022-08-27T05:56:24;101428.66;;;18.45;67.45
3294;BME280;1659;51.470;6.770;2022-08-27T05:58:51;101427.63;;;18.48;67.45
3294;BME280;1659;51.470;6.770;2022-08-27T06:01:39;101423.88;;;18.52;67.26
3294;BME280;1659;51.470;6.770;2022-08-27T06:04:06;101418.41;;;18.55;67.20
3294;BME280;1659;51.470;6.770;2022-08-27T06:06:34;101422.72;;;18.59;67.21
3294;BME280;1659;51.470;6.770;2022-08-27T06:09:01;101433.22;;;18.64;67.26
3294;BME280;1659;51.470;6.770;2022-08-27T06:13:55;101425.00;;;18.68;66.92
3294;BME280;1659;51.470;6.770;2022-08-27T06:16:22;101431.09;;;18.72;66.63
3294;BME280;1659;51.470;6.770;2022-08-27T06:18:50;101431.84;;;18.76;66.71
3294;BME280;1659;51.470;6.770;2022-08-27T06:21:18;101433.44;;;18.80;66.72
3294;BME280;1659;51.470;6.770;2022-08-27T06:23:46;101436.81;;;18.85;66.64
3294;BME280;1659;51.470;6.770;2022-08-27T06:26:15;101433.09;;;18.89;66.45
3294;BME280;1659;51.470;6.770;2022-08-27T06:28:43;101439.03;;;18.96;66.33
3294;BME280;1659;51.470;6.770;2022-08-27T06:31:12;101428.06;;;19.02;65.99
3294;BME280;1659;51.470;6.770;2022-08-27T06:33:41;101426.78;;;19.11;65.95
3294;BME280;1659;51.470;6.770;2022-08-27T06:36:12;101434.41;;;19.20;65.70
3294;BME280;1659;51.470;6.770;2022-08-27T06:38:39;101424.19;;;19.30;65.30
3294;BME280;1659;51.470;6.770;2022-08-27T06:41:08;101433.81;;;19.34;65.38
3294;BME280;1659;51.470;6.770;2022-08-27T06:43:36;101430.06;;;19.38;65.42
3294;BME280;1659;51.470;6.770;2022-08-27T06:46:05;101432.53;;;19.42;65.22
3294;BME280;1659;51.470;6.770;2022-08-27T06:48:32;101433.59;;;19.38;65.10
3294;BME280;1659;51.470;6.770;2022-08-27T06:51:06;101429.91;;;19.41;65.02
3294;BME280;1659;51.470;6.770;2022-08-27T06:53:34;101438.84;;;19.41;65.03
3294;BME280;1659;51.470;6.770;2022-08-27T06:56:01;101435.34;;;19.39;65.02
3294;BME280;1659;51.470;6.770;2022-08-27T06:58:28;101439.63;;;19.43;64.90
3294;BME280;1659;51.470;6.770;2022-08-27T07:00:55;101437.44;;;19.52;64.76
3294;BME280;1659;51.470;6.770;2022-08-27T07:03:22;101433.97;;;19.50;64.78
3294;BME280;1659;51.470;6.770;2022-08-27T07:05:48;101435.66;;;19.52;64.70
3294;BME280;1659;51.470;6.770;2022-08-27T07:08:15;101438.28;;;19.54;64.53
3294;BME280;1659;51.470;6.770;2022-08-27T07:10:43;101440.78;;;19.57;64.53
3294;BME280;1659;51.470;6.770;2022-08-27T07:13:10;101435.44;;;19.57;64.51
3294;BME280;1659;51.470;6.770;2022-08-27T07:15:37;101443.16;;;19.65;64.37
3294;BME280;1659;51.470;6.770;2022-08-27T07:18:04;101434.13;;;19.66;64.35
3294;BME280;1659;51.470;6.770;2022-08-27T07:20:31;101436.63;;;19.70;64.08
3294;BME280;1659;51.470;6.770;2022-08-27T07:22:57;101443.59;;;19.74;64.03
3294;BME280;1659;51.470;6.770;2022-08-27T07:25:24;101443.75;;;19.71;64.07
3294;BME280;1659;51.470;6.770;2022-08-27T07:27:52;101439.16;;;19.73;63.90
3294;BME280;1659;51.470;6.770;2022-08-27T07:30:19;101436.50;;;19.73;63.83
3294;BME280;1659;51.470;6.770;2022-08-27T07:32:46;101441.84;;;19.73;63.91
3294;BME280;1659;51.470;6.770;2022-08-27T07:35:13;101435.75;;;19.70;63.88
3294;BME280;1659;51.470;6.770;2022-08-27T07:37:40;101441.19;;;19.68;64.00
3294;BME280;1659;51.470;6.770;2022-08-27T07:40:09;101443.75;;;19.71;63.83
3294;BME280;1659;51.470;6.770;2022-08-27T07:42:37;101445.34;;;19.75;63.62
3294;BME280;1659;51.470;6.770;2022-08-27T07:45:22;101446.16;;;19.77;63.80
3294;BME280;1659;51.470;6.770;2022-08-27T07:47:49;101450.28;;;19.85;63.56
3294;BME280;1659;51.470;6.770;2022-08-27T07:50:16;101450.94;;;19.90;63.48
3294;BME280;1659;51.470;6.770;2022-08-27T07:52:43;101448.97;;;19.93;63.30
3294;BME280;1659;51.470;6.770;2022-08-27T07:55:10;101452.56;;;19.94;63.28
3294;BME280;1659;51.470;6.770;2022-08-27T07:57:37;101448.63;;;20.01;63.20
3294;BME280;1659;51.470;6.770;2022-08-27T08:00:05;101445.66;;;20.07;63.12
3294;BME280;1659;51.470;6.770;2022-08-27T08:02:34;101454.34;;;20.12;62.89
3294;BME280;1659;51.470;6.770;2022-08-27T08:05:01;101454.22;;;20.15;62.90
3294;BME280;1659;51.470;6.770;2022-08-27T08:07:28;101459.56;;;20.15;62.76
3294;BME280;1659;51.470;6.770;2022-08-27T08:09:55;101456.88;;;20.15;62.71
3294;BME280;1659;51.470;6.770;2022-08-27T08:12:21;101459.25;;;20.22;62.71
3294;BME280;1659;51.470;6.770;2022-08-27T08:14:48;101458.13;;;20.27;62.56
3294;BME280;1659;51.470;6.770;2022-08-27T08:17:15;101460.56;;;20.32;62.59
3294;BME280;1659;51.470;6.770;2022-08-27T08:19:43;101465.72;;;20.36;62.31
3294;BME280;1659;51.470;6.770;2022-08-27T08:22:09;101462.88;;;20.40;62.29
3294;BME280;1659;51.470;6.770;2022-08-27T08:24:36;101460.69;;;20.48;62.16
3294;BME280;1659;51.470;6.770;2022-08-27T08:27:03;101462.94;;;20.57;61.78
3294;BME280;1659;51.470;6.770;2022-08-27T08:29:29;101470.91;;;20.59;61.67
3294;BME280;1659;51.470;6.770;2022-08-27T08:31:56;101463.44;;;20.65;61.56
3294;BME280;1659;51.470;6.770;2022-08-27T08:34:23;101465.66;;;20.74;61.42
3294;BME280;1659;51.470;6.770;2022-08-27T08:36:51;101475.88;;;20.85;61.14
3294;BME280;1659;51.470;6.770;2022-08-27T08:39:18;101474.75;;;20.89;61.13
3294;BME280;1659;51.470;6.770;2022-08-27T08:41:50;101466.53;;;20.92;60.95
3294;BME280;1659;51.470;6.770;2022-08-27T08:44:25;101468.81;;;21.00;60.80
3294;BME280;1659;51.470;6.770;2022-08-27T08:46:58;101468.38;;;21.09;60.57
3294;BME280;1659;51.470;6.770;2022-08-27T08:49:33;101468.94;;;21.16;60.53
3294;BME280;1659;51.470;6.770;2022-08-27T08:52:17;101472.22;;;21.21;60.32
3294;BME280;1659;51.470;6.770;2022-08-27T08:54:44;101475.53;;;21.26;60.24
3294;BME280;1659;51.470;6.770;2022-08-27T08:57:17;101479.66;;;21.34;60.19
3294;BME280;1659;51.470;6.770;2022-08-27T08:59:52;101488.19;;;21.42;59.99
3294;BME280;1659;51.470;6.770;2022-08-27T09:02:19;101486.78;;;21.52;59.77
3294;BME280;1659;51.470;6.770;2022-08-27T09:04:46;101491.03;;;21.56;59.93
3294;BME280;1659;51.470;6.770;2022-08-27T09:07:18;101480.28;;;21.56;59.61
3294;BME280;1659;51.470;6.770;2022-08-27T09:09:52;101475.69;;;21.58;59.64
3294;BME280;1659;51.470;6.770;2022-08-27T09:12:26;101485.25;;;21.64;59.50
3294;BME280;1659;51.470;6.770;2022-08-27T09:14:59;101488.31;;;21.74;59.28
3294;BME280;1659;51.470;6.770;2022-08-27T09:17:27;101493.13;;;21.84;58.97
3294;BME280;1659;51.470;6.770;2022-08-27T09:19:54;101494.53;;;21.92;58.90
3294;BME280;1659;51.470;6.770;2022-08-27T09:22:26;101495.66;;;22.03;58.51
3294;BME280;1659;51.470;6.770;2022-08-27T09:25:04;101493.16;;;22.16;58.13
3294;BME280;1659;51.470;6.770;2022-08-27T09:27:33;101491.84;;;22.23;57.93
3294;BME280;1659;51.470;6.770;2022-08-27T09:30:06;101495.59;;;22.21;57.96
3294;BME280;1659;51.470;6.770;2022-08-27T09:32:33;101494.63;;;22.22;57.91
3294;BME280;1659;51.470;6.770;2022-08-27T09:35:04;101492.63;;;22.25;57.59
3294;BME280;1659;51.470;6.770;2022-08-27T09:37:39;101485.34;;;22.28;57.58
3294;BME280;1659;51.470;6.770;2022-08-27T09:40:12;101494.94;;;22.33;57.44
3294;BME280;1659;51.470;6.770;2022-08-27T09:42:41;101490.84;;;22.42;57.41
3294;BME280;1659;51.470;6.770;2022-08-27T09:45:11;101489.47;;;22.51;57.36
3294;BME280;1659;51.470;6.770;2022-08-27T09:47:43;101489.00;;;22.58;56.96
3294;BME280;1659;51.470;6.770;2022-08-27T09:50:09;101485.38;;;22.59;57.01
3294;BME280;1659;51.470;6.770;2022-08-27T09:52:50;101481.78;;;22.59;56.79
3294;BME280;1659;51.470;6.770;2022-08-27T09:55:27;101482.13;;;22.69;56.50
3294;BME280;1659;51.470;6.770;2022-08-27T09:57:55;101487.69;;;22.66;56.43
3294;BME280;1659;51.470;6.770;2022-08-27T10:00:30;101485.53;;;22.56;56.61
3294;BME280;1659;51.470;6.770;2022-08-27T10:02:59;101482.75;;;22.58;56.53
3294;BME280;1659;51.470;6.770;2022-08-27T10:05:29;101490.38;;;22.66;56.41
3294;BME280;1659;51.470;6.770;2022-08-27T10:08:00;101484.44;;;22.75;56.14
3294;BME280;1659;51.470;6.770;2022-08-27T10:10:39;101483.03;;;22.84;56.07
3294;BME280;1659;51.470;6.770;2022-08-27T10:13:13;101488.00;;;22.91;55.73
3294;BME280;1659;51.470;6.770;2022-08-27T10:15:49;101485.00;;;22.96;55.50
3294;BME280;1659;51.470;6.770;2022-08-27T10:18:26;101488.13;;;23.04;55.31
3294;BME280;1659;51.470;6.770;2022-08-27T10:21:03;101482.09;;;23.15;55.16
3294;BME280;1659;51.470;6.770;2022-08-27T10:23:38;101475.09;;;23.27;55.09
3294;BME280;1659;51.470;6.770;2022-08-27T10:26:12;101478.03;;;23.38;54.65
3294;BME280;1659;51.470;6.770;2022-08-27T10:28:53;101476.47;;;23.48;54.58
3294;BME280;1659;51.470;6.770;2022-08-27T10:31:30;101468.78;;;23.56;54.15
3294;BME280;1659;51.470;6.770;2022-08-27T10:34:09;101474.56;;;23.65;54.01
3294;BME280;1659;51.470;6.770;2022-08-27T10:36:45;101487.19;;;23.64;54.31
3294;BME280;1659;51.470;6.770;2022-08-27T10:39:21;101473.50;;;23.67;53.88
3294;BME280;1659;51.470;6.770;2022-08-27T10:41:54;101476.28;;;23.66;53.79
3294;BME280;1659;51.470;6.770;2022-08-27T10:44:42;101469.16;;;23.79;53.64
3294;BME280;1659;51.470;6.770;2022-08-27T10:47:29;101463.94;;;23.76;53.70
3294;BME280;1659;51.470;6.770;2022-08-27T10:50:03;101454.81;;;23.79;53.61
3294;BME280;1659;51.470;6.770;2022-08-27T10:52:35;101457.53;;;23.93;53.39
3294;BME280;1659;51.470;6.770;2022-08-27T10:55:11;101461.94;;;24.08;52.75
3294;BME280;1659;51.470;6.770;2022-08-27T10:58:00;101462.97;;;24.20;52.81
3294;BME280;1659;51.470;6.770;2022-08-27T11:00:38;101460.84;;;24.25;52.42
3294;BME280;1659;51.470;6.770;2022-08-27T11:03:08;101473.22;;;24.15;52.43
3294;BME280;1659;51.470;6.770;2022-08-27T11:05:40;101466.06;;;24.14;52.61
3294;BME280;1659;51.470;6.770;2022-08-27T11:08:14;101460.75;;;24.12;52.65
3294;BME280;1659;51.470;6.770;2022-08-27T11:10:46;101462.41;;;24.15;52.28
3294;BME280;1659;51.470;6.770;2022-08-27T11:13:18;101460.47;;;24.17;52.42
3294;BME280;1659;51.470;6.770;2022-08-27T11:15:50;101463.66;;;24.09;52.08
3294;BME280;1659;51.470;6.770;2022-08-27T11:18:23;101465.34;;;23.98;52.30
3294;BME280;1659;51.470;6.770;2022-08-27T11:20:56;101457.31;;;23.96;52.21
3294;BME280;1659;51.470;6.770;2022-08-27T11:23:28;101458.47;;;23.92;52.20
3294;BME280;1659;51.470;6.770;2022-08-27T11:26:03;101461.47;;;23.87;52.39
3294;BME280;1659;51.470;6.770;2022-08-27T11:28:32;101464.16;;;24.02;51.96
3294;BME280;1659;51.470;6.770;2022-08-27T11:31:08;101463.38;;;24.14;51.91
3294;BME280;1659;51.470;6.770;2022-08-27T11:33:39;101463.94;;;24.19;51.36
3294;BME280;1659;51.470;6.770;2022-08-27T11:39:38;101462.88;;;24.07;51.54
3294;BME280;1659;51.470;6.770;2022-08-27T11:42:15;101463.50;;;23.98;51.64
3294;BME280;1659;51.470;6.770;2022-08-27T11:44:46;101456.75;;;23.91;51.62
3294;BME280;1659;51.470;6.770;2022-08-27T11:47:19;101467.84;;;23.86;51.47
3294;BME280;1659;51.470;6.770;2022-08-27T11:49:50;101462.75;;;23.82;51.52
3294;BME280;1659;51.470;6.770;2022-08-27T11:52:23;101458.88;;;23.71;51.76
3294;BME280;1659;51.470;6.770;2022-08-27T11:54:55;101465.63;;;23.64;51.55
3294;BME280;1659;51.470;6.770;2022-08-27T11:57:29;101464.53;;;23.52;51.62
3294;BME280;1659;51.470;6.770;2022-08-27T11:59:57;101470.63;;;23.42;51.60
3294;BME280;1659;51.470;6.770;2022-08-27T12:02:27;101463.47;;;23.41;51.52
3294;BME280;1659;51.470;6.770;2022-08-27T12:05:06;101466.84;;;23.44;51.77
3294;BME280;1659;51.470;6.770;2022-08-27T12:07:35;101468.59;;;23.45;51.63
3294;BME280;1659;51.470;6.770;2022-08-27T12:10:21;101460.59;;;23.44;51.53
3294;BME280;1659;51.470;6.770;2022-08-27T12:13:04;101462.31;;;23.45;51.37
3294;BME280;1659;51.470;6.770;2022-08-27T12:15:51;101458.97;;;23.55;51.01
3294;BME280;1659;51.470;6.770;2022-08-27T12:18:55;101461.84;;;23.67;50.79
3294;BME280;1659;51.470;6.770;2022-08-27T12:21:32;101456.53;;;23.80;50.70
3294;BME280;1659;51.470;6.770;2022-08-27T12:24:30;101460.50;;;23.88;50.26
3294;BME280;1659;51.470;6.770;2022-08-27T12:27:15;101447.81;;;23.90;50.63
3294;BME280;1659;51.470;6.770;2022-08-27T12:29:48;101456.75;;;23.91;49.98
3294;BME280;1659;51.470;6.770;2022-08-27T12:32:25;101458.78;;;23.87;50.32
3294;BME280;1659;51.470;6.770;2022-08-27T12:34:58;101452.00;;;23.80;50.64
3294;BME280;1659;51.470;6.770;2022-08-27T12:37:29;101450.47;;;23.76;50.64
3294;BME280;1659;51.470;6.770;2022-08-27T12:39:59;101459.63;;;23.73;50.53
3294;BME280;1659;51.470;6.770;2022-08-27T12:42:27;101457.53;;;23.64;50.61
3294;BME280;1659;51.470;6.770;2022-08-27T12:44:56;101455.09;;;23.60;50.72
3294;BME280;1659;51.470;6.770;2022-08-27T12:47:24;101455.09;;;23.60;50.47
3294;BME280;1659;51.470;6.770;2022-08-27T12:49:53;101462.03;;;23.64;50.15
3294;BME280;1659;51.470;6.770;2022-08-27T12:52:41;101461.34;;;23.60;50.26
3294;BME280;1659;51.470;6.770;2022-08-27T12:55:17;101459.34;;;23.49;50.62
3294;BME280;1659;51.470;6.770;2022-08-27T12:57:53;101448.81;;;23.45;50.43
3294;BME280;1659;51.470;6.770;2022-08-27T13:00:25;101455.09;;;23.45;50.52
3294;BME280;1659;51.470;6.770;2022-08-27T13:03:14;101449.72;;;23.45;50.41
3294;BME280;1659;51.470;6.770;2022-08-27T13:05:47;101445.16;;;23.46;50.59
3294;BME280;1659;51.470;6.770;2022-08-27T13:08:19;101449.63;;;23.47;50.26
3294;BME280;1659;51.470;6.770;2022-08-27T13:10:46;101437.84;;;23.48;50.34
3294;BME280;1659;51.470;6.770;2022-08-27T13:13:16;101443.63;;;23.56;50.13
3294;BME280;1659;51.470;6.770;2022-08-27T13:15:47;101437.94;;;23.61;50.04
3294;BME280;1659;51.470;6.770;2022-08-27T13:18:14;101443.03;;;23.65;49.72
3294;BME280;1659;51.470;6.770;2022-08-27T13:20:42;101437.28;;;23.71;49.59
3294;BME280;1659;51.470;6.770;2022-08-27T13:23:13;101444.00;;;23.79;49.63
3294;BME280;1659;51.470;6.770;2022-08-27T13:25:51;101441.03;;;23.83;49.51
3294;BME280;1659;51.470;6.770;2022-08-27T13:28:20;101440.84;;;23.86;49.28
3294;BME280;1659;51.470;6.770;2022-08-27T13:30:49;101445.47;;;23.84;49.44